Terminal Aerodrome Forecast
Issued by NWS

Home | Current Version | Previous Version | Text Only | Print | Product List | Glossary On
Versions: 1 2 3 4 5 6 7 8 9 10 11 12 13
931
FTUS46 KHNX 251125
TAFBFL
TAF
KBFL 251125Z 2512/2612 33005KT P6SM SCT100 BKN250
      TEMPO 2523/2603 SCT050 BKN100=

USA.gov is the U.S. government's official web portal to all federal, state and local government web resources and services.